sensor_id;sensor_type;location;lat;lon;timestamp;temperature;humidity
8099;DHT22;4092;47.876;9.372;2022-09-01T00:01:46;13.30;99.90
8099;DHT22;4092;47.876;9.372;2022-09-01T00:04:16;13.30;99.90
8099;DHT22;4092;47.876;9.372;2022-09-01T00:06:43;13.30;99.90
8099;DHT22;4092;47.876;9.372;2022-09-01T00:09:13;13.40;99.90
8099;DHT22;4092;47.876;9.372;2022-09-01T00:11:44;13.40;99.90
8099;DHT22;4092;47.876;9.372;2022-09-01T00:14:12;13.40;99.90
8099;DHT22;4092;47.876;9.372;2022-09-01T00:16:39;13.40;99.90
8099;DHT22;4092;47.876;9.372;2022-09-01T00:19:07;13.40;99.90
8099;DHT22;4092;47.876;9.372;2022-09-01T00:21:37;13.50;99.90
8099;DHT22;4092;47.876;9.372;2022-09-01T00:24:05;13.40;99.90
8099;DHT22;4092;47.876;9.372;2022-09-01T00:26:32;13.50;99.90
8099;DHT22;4092;47.876;9.372;2022-09-01T00:29:01;13.50;99.90
8099;DHT22;4092;47.876;9.372;2022-09-01T00:31:28;13.60;99.90
8099;DHT22;4092;47.876;9.372;2022-09-01T00:33:55;13.60;99.90
8099;DHT22;4092;47.876;9.372;2022-09-01T00:36:22;13.60;99.90
8099;DHT22;4092;47.876;9.372;2022-09-01T00:38:50;13.60;99.90
8099;DHT22;4092;47.876;9.372;2022-09-01T00:41:19;13.60;99.90
8099;DHT22;4092;47.876;9.372;2022-09-01T00:43:49;13.50;99.90
8099;DHT22;4092;47.876;9.372;2022-09-01T00:46:19;13.50;99.90
8099;DHT22;4092;47.876;9.372;2022-09-01T00:48:52;13.50;99.90
8099;DHT22;4092;47.876;9.372;2022-09-01T00:51:19;13.50;99.90
8099;DHT22;4092;47.876;9.372;2022-09-01T00:53:46;13.50;99.90
8099;DHT22;4092;47.876;9.372;2022-09-01T00:56:14;13.50;99.90
8099;DHT22;4092;47.876;9.372;2022-09-01T00:58:41;13.50;99.90
8099;DHT22;4092;47.876;9.372;2022-09-01T01:01:10;13.50;99.90
8099;DHT22;4092;47.876;9.372;2022-09-01T01:03:39;13.40;99.90
8099;DHT22;4092;47.876;9.372;2022-09-01T01:06:12;13.40;99.90
8099;DHT22;4092;47.876;9.372;2022-09-01T01:08:44;13.40;99.90
8099;DHT22;4092;47.876;9.372;2022-09-01T01:11:24;13.40;99.90
8099;DHT22;4092;47.876;9.372;2022-09-01T01:13:54;13.30;99.90
8099;DHT22;4092;47.876;9.372;2022-09-01T01:16:23;13.30;99.90
8099;DHT22;4092;47.876;9.372;2022-09-01T01:18:52;13.30;99.90
8099;DHT22;4092;47.876;9.372;2022-09-01T01:21:23;13.40;99.90
8099;DHT22;4092;47.876;9.372;2022-09-01T01:24:20;13.40;99.90
8099;DHT22;4092;47.876;9.372;2022-09-01T01:26:48;13.40;99.90
8099;DHT22;4092;47.876;9.372;2022-09-01T01:29:15;13.40;99.90
8099;DHT22;4092;47.876;9.372;2022-09-01T01:31:43;13.30;99.90
8099;DHT22;4092;47.876;9.372;2022-09-01T01:34:12;13.30;99.90
8099;DHT22;4092;47.876;9.372;2022-09-01T01:36:39;13.40;99.90
8099;DHT22;4092;47.876;9.372;2022-09-01T01:39:09;13.40;99.90
8099;DHT22;4092;47.876;9.372;2022-09-01T01:41:40;13.30;99.90
8099;DHT22;4092;47.876;9.372;2022-09-01T01:44:11;13.30;99.90
8099;DHT22;4092;47.876;9.372;2022-09-01T01:46:41;13.30;99.90
8099;DHT22;4092;47.876;9.372;2022-09-01T01:49:09;13.30;99.90
8099;DHT22;4092;47.876;9.372;2022-09-01T01:51:38;13.30;99.90
8099;DHT22;4092;47.876;9.372;2022-09-01T01:54:05;13.30;99.90
8099;DHT22;4092;47.876;9.372;2022-09-01T01:56:33;13.30;99.90
8099;DHT22;4092;47.876;9.372;2022-09-01T01:59:06;13.30;99.90
8099;DHT22;4092;47.876;9.372;2022-09-01T02:01:34;13.30;99.90
8099;DHT22;4092;47.876;9.372;2022-09-01T02:04:03;13.30;99.90
8099;DHT22;4092;47.876;9.372;2022-09-01T02:06:32;13.40;99.90
8099;DHT22;4092;47.876;9.372;2022-09-01T02:09:00;13.30;99.90
8099;DHT22;4092;47.876;9.372;2022-09-01T02:11:28;13.30;99.90
8099;DHT22;4092;47.876;9.372;2022-09-01T02:13:58;13.40;99.90
8099;DHT22;4092;47.876;9.372;2022-09-01T02:16:28;13.40;99.90
8099;DHT22;4092;47.876;9.372;2022-09-01T02:18:58;13.40;99.90
8099;DHT22;4092;47.876;9.372;2022-09-01T02:21:26;13.40;99.90
8099;DHT22;4092;47.876;9.372;2022-09-01T02:23:55;13.40;99.90
8099;DHT22;4092;47.876;9.372;2022-09-01T02:26:25;13.40;99.90
8099;DHT22;4092;47.876;9.372;2022-09-01T02:28:57;13.40;99.90
8099;DHT22;4092;47.876;9.372;2022-09-01T02:31:28;13.40;99.90
8099;DHT22;4092;47.876;9.372;2022-09-01T02:33:57;13.40;99.90
8099;DHT22;4092;47.876;9.372;2022-09-01T02:36:25;13.40;99.90
8099;DHT22;4092;47.876;9.372;2022-09-01T02:38:53;13.40;99.90
8099;DHT22;4092;47.876;9.372;2022-09-01T02:41:21;13.40;99.90
8099;DHT22;4092;47.876;9.372;2022-09-01T02:43:49;13.40;99.90
8099;DHT22;4092;47.876;9.372;2022-09-01T02:46:16;13.30;99.90
8099;DHT22;4092;47.876;9.372;2022-09-01T02:48:49;13.30;99.90
8099;DHT22;4092;47.876;9.372;2022-09-01T02:51:21;13.30;99.90
8099;DHT22;4092;47.876;9.372;2022-09-01T02:53:50;13.30;99.90
8099;DHT22;4092;47.876;9.372;2022-09-01T02:56:19;13.30;99.90
8099;DHT22;4092;47.876;9.372;2022-09-01T02:58:48;13.30;99.90
8099;DHT22;4092;47.876;9.372;2022-09-01T03:01:18;13.30;99.90
8099;DHT22;4092;47.876;9.372;2022-09-01T03:03:49;13.20;99.90
8099;DHT22;4092;47.876;9.372;2022-09-01T03:06:17;13.30;99.90
8099;DHT22;4092;47.876;9.372;2022-09-01T03:08:46;13.20;99.90
8099;DHT22;4092;47.876;9.372;2022-09-01T03:11:13;13.20;99.90
8099;DHT22;4092;47.876;9.372;2022-09-01T03:13:41;13.20;99.90
8099;DHT22;4092;47.876;9.372;2022-09-01T03:16:09;13.20;99.90
8099;DHT22;4092;47.876;9.372;2022-09-01T03:18:36;13.20;99.90
8099;DHT22;4092;47.876;9.372;2022-09-01T03:21:06;13.20;99.90
8099;DHT22;4092;47.876;9.372;2022-09-01T03:23:35;13.20;99.90
8099;DHT22;4092;47.876;9.372;2022-09-01T03:26:03;13.30;99.90
8099;DHT22;4092;47.876;9.372;2022-09-01T03:28:30;13.20;99.90
8099;DHT22;4092;47.876;9.372;2022-09-01T03:30:58;13.30;99.90
8099;DHT22;4092;47.876;9.372;2022-09-01T03:33:26;13.30;99.90
8099;DHT22;4092;47.876;9.372;2022-09-01T03:35:54;13.30;99.90
8099;DHT22;4092;47.876;9.372;2022-09-01T03:38:24;13.30;99.90
8099;DHT22;4092;47.876;9.372;2022-09-01T03:40:52;13.40;99.90
8099;DHT22;4092;47.876;9.372;2022-09-01T03:43:24;13.40;99.90
8099;DHT22;4092;47.876;9.372;2022-09-01T03:45:52;13.40;99.90
8099;DHT22;4092;47.876;9.372;2022-09-01T03:48:21;13.30;99.90
8099;DHT22;4092;47.876;9.372;2022-09-01T03:50:51;13.40;99.90
8099;DHT22;4092;47.876;9.372;2022-09-01T03:53:19;13.40;99.90
8099;DHT22;4092;47.876;9.372;2022-09-01T03:55:49;13.40;99.90
8099;DHT22;4092;47.876;9.372;2022-09-01T03:58:18;13.40;99.90
8099;DHT22;4092;47.876;9.372;2022-09-01T04:00:48;13.40;99.90
8099;DHT22;4092;47.876;9.372;2022-09-01T04:03:17;13.40;99.90
8099;DHT22;4092;47.876;9.372;2022-09-01T04:05:47;13.40;99.90
8099;DHT22;4092;47.876;9.372;2022-09-01T04:08:16;13.40;99.90
8099;DHT22;4092;47.876;9.372;2022-09-01T04:10:45;13.40;99.90
8099;DHT22;4092;47.876;9.372;2022-09-01T04:13:16;13.40;99.90
8099;DHT22;4092;47.876;9.372;2022-09-01T04:15:44;13.40;99.90
8099;DHT22;4092;47.876;9.372;2022-09-01T04:18:12;13.40;99.90
8099;DHT22;4092;47.876;9.372;2022-09-01T04:20:46;13.40;99.90
8099;DHT22;4092;47.876;9.372;2022-09-01T04:23:15;13.40;99.90
8099;DHT22;4092;47.876;9.372;2022-09-01T04:25:47;13.40;99.90
8099;DHT22;4092;47.876;9.372;2022-09-01T04:28:17;13.40;99.90
8099;DHT22;4092;47.876;9.372;2022-09-01T04:30:54;13.40;99.90
8099;DHT22;4092;47.876;9.372;2022-09-01T04:33:23;13.40;99.90
8099;DHT22;4092;47.876;9.372;2022-09-01T04:35:50;13.40;99.90
8099;DHT22;4092;47.876;9.372;2022-09-01T04:38:22;13.30;99.90
8099;DHT22;4092;47.876;9.372;2022-09-01T04:40:52;13.40;99.90
8099;DHT22;4092;47.876;9.372;2022-09-01T04:43:27;13.40;99.90
8099;DHT22;4092;47.876;9.372;2022-09-01T04:45:56;13.40;99.90
8099;DHT22;4092;47.876;9.372;2022-09-01T04:48:24;13.30;99.90
8099;DHT22;4092;47.876;9.372;2022-09-01T04:50:51;13.30;99.90
8099;DHT22;4092;47.876;9.372;2022-09-01T04:53:21;13.30;99.90
8099;DHT22;4092;47.876;9.372;2022-09-01T04:55:49;13.30;99.90
8099;DHT22;4092;47.876;9.372;2022-09-01T04:58:18;13.30;99.90
8099;DHT22;4092;47.876;9.372;2022-09-01T05:00:48;13.30;99.90
8099;DHT22;4092;47.876;9.372;2022-09-01T05:03:17;13.30;99.90
8099;DHT22;4092;47.876;9.372;2022-09-01T05:05:46;13.20;99.90
8099;DHT22;4092;47.876;9.372;2022-09-01T05:08:15;13.30;99.90
8099;DHT22;4092;47.876;9.372;2022-09-01T05:10:44;13.30;99.90
8099;DHT22;4092;47.876;9.372;2022-09-01T05:13:13;13.30;99.90
8099;DHT22;4092;47.876;9.372;2022-09-01T05:15:43;13.20;99.90
8099;DHT22;4092;47.876;9.372;2022-09-01T05:18:15;13.30;99.90
8099;DHT22;4092;47.876;9.372;2022-09-01T05:20:48;13.30;99.90
8099;DHT22;4092;47.876;9.372;2022-09-01T05:23:17;13.30;99.90
8099;DHT22;4092;47.876;9.372;2022-09-01T05:25:50;13.40;99.90
8099;DHT22;4092;47.876;9.372;2022-09-01T05:28:19;13.30;99.90
8099;DHT22;4092;47.876;9.372;2022-09-01T05:30:50;13.30;99.90
8099;DHT22;4092;47.876;9.372;2022-09-01T05:33:20;13.40;99.90
8099;DHT22;4092;47.876;9.372;2022-09-01T05:35:53;13.40;99.90
8099;DHT22;4092;47.876;9.372;2022-09-01T05:38:21;13.40;99.90
8099;DHT22;4092;47.876;9.372;2022-09-01T05:40:55;13.40;99.90
8099;DHT22;4092;47.876;9.372;2022-09-01T05:43:23;13.40;99.90
8099;DHT22;4092;47.876;9.372;2022-09-01T05:45:52;13.40;99.90
8099;DHT22;4092;47.876;9.372;2022-09-01T05:48:21;13.50;99.90
8099;DHT22;4092;47.876;9.372;2022-09-01T05:50:49;13.50;99.90
8099;DHT22;4092;47.876;9.372;2022-09-01T05:53:20;13.50;99.90
8099;DHT22;4092;47.876;9.372;2022-09-01T05:55:51;13.60;99.90
8099;DHT22;4092;47.876;9.372;2022-09-01T05:58:23;13.60;99.90
8099;DHT22;4092;47.876;9.372;2022-09-01T06:00:51;13.60;99.90
8099;DHT22;4092;47.876;9.372;2022-09-01T06:03:22;13.60;99.90
8099;DHT22;4092;47.876;9.372;2022-09-01T06:05:49;13.50;99.90
8099;DHT22;4092;47.876;9.372;2022-09-01T06:08:18;13.60;99.90
8099;DHT22;4092;47.876;9.372;2022-09-01T06:10:46;13.60;99.90
8099;DHT22;4092;47.876;9.372;2022-09-01T06:13:15;13.60;99.90
8099;DHT22;4092;47.876;9.372;2022-09-01T06:15:46;13.70;99.90
8099;DHT22;4092;47.876;9.372;2022-09-01T06:18:15;13.70;99.90
8099;DHT22;4092;47.876;9.372;2022-09-01T06:20:46;13.80;99.90
8099;DHT22;4092;47.876;9.372;2022-09-01T06:23:15;13.80;99.90
8099;DHT22;4092;47.876;9.372;2022-09-01T06:25:44;13.80;99.90
8099;DHT22;4092;47.876;9.372;2022-09-01T06:28:12;13.90;99.90
8099;DHT22;4092;47.876;9.372;2022-09-01T06:30:40;13.90;99.90
8099;DHT22;4092;47.876;9.372;2022-09-01T06:33:10;14.00;99.90
8099;DHT22;4092;47.876;9.372;2022-09-01T06:35:39;14.00;99.90
8099;DHT22;4092;47.876;9.372;2022-09-01T06:38:08;14.00;99.90
8099;DHT22;4092;47.876;9.372;2022-09-01T06:40:37;14.00;99.90
8099;DHT22;4092;47.876;9.372;2022-09-01T06:43:05;14.10;99.90
8099;DHT22;4092;47.876;9.372;2022-09-01T06:45:37;14.10;99.90
8099;DHT22;4092;47.876;9.372;2022-09-01T06:48:05;14.10;99.90
8099;DHT22;4092;47.876;9.372;2022-09-01T06:50:32;14.10;99.90
8099;DHT22;4092;47.876;9.372;2022-09-01T06:53:00;14.20;99.90
8099;DHT22;4092;47.876;9.372;2022-09-01T06:55:37;14.20;99.90
8099;DHT22;4092;47.876;9.372;2022-09-01T06:58:07;14.20;99.90
8099;DHT22;4092;47.876;9.372;2022-09-01T07:00:37;14.20;99.90
8099;DHT22;4092;47.876;9.372;2022-09-01T07:03:07;14.30;99.90
8099;DHT22;4092;47.876;9.372;2022-09-01T07:05:36;14.30;99.90
8099;DHT22;4092;47.876;9.372;2022-09-01T07:08:05;14.20;99.90
8099;DHT22;4092;47.876;9.372;2022-09-01T07:10:41;14.30;99.90
8099;DHT22;4092;47.876;9.372;2022-09-01T07:13:11;14.30;99.90
8099;DHT22;4092;47.876;9.372;2022-09-01T07:15:44;14.30;99.90
8099;DHT22;4092;47.876;9.372;2022-09-01T07:18:15;14.30;99.90
8099;DHT22;4092;47.876;9.372;2022-09-01T07:20:42;14.30;99.90
8099;DHT22;4092;47.876;9.372;2022-09-01T07:23:13;14.40;99.90
8099;DHT22;4092;47.876;9.372;2022-09-01T07:25:43;14.50;99.90
8099;DHT22;4092;47.876;9.372;2022-09-01T07:28:13;14.50;99.90
8099;DHT22;4092;47.876;9.372;2022-09-01T07:30:42;14.40;99.90
8099;DHT22;4092;47.876;9.372;2022-09-01T07:33:10;14.50;99.90
8099;DHT22;4092;47.876;9.372;2022-09-01T07:35:38;14.60;99.90
8099;DHT22;4092;47.876;9.372;2022-09-01T07:38:06;14.80;99.90
8099;DHT22;4092;47.876;9.372;2022-09-01T07:40:35;14.90;99.90
8099;DHT22;4092;47.876;9.372;2022-09-01T07:43:06;15.00;99.90
8099;DHT22;4092;47.876;9.372;2022-09-01T07:45:35;15.10;99.90
8099;DHT22;4092;47.876;9.372;2022-09-01T07:48:05;15.10;99.90
8099;DHT22;4092;47.876;9.372;2022-09-01T07:50:34;15.10;99.90
8099;DHT22;4092;47.876;9.372;2022-09-01T07:53:01;15.10;99.90
8099;DHT22;4092;47.876;9.372;2022-09-01T07:55:29;15.10;99.90
8099;DHT22;4092;47.876;9.372;2022-09-01T07:57:56;15.20;99.90
8099;DHT22;4092;47.876;9.372;2022-09-01T08:00:25;15.20;99.90
8099;DHT22;4092;47.876;9.372;2022-09-01T08:02:53;15.20;99.90
8099;DHT22;4092;47.876;9.372;2022-09-01T08:05:20;15.30;99.90
8099;DHT22;4092;47.876;9.372;2022-09-01T08:07:52;15.30;99.90
8099;DHT22;4092;47.876;9.372;2022-09-01T08:10:19;15.40;99.90
8099;DHT22;4092;47.876;9.372;2022-09-01T08:12:46;15.50;99.90
8099;DHT22;4092;47.876;9.372;2022-09-01T08:15:14;15.50;99.90
8099;DHT22;4092;47.876;9.372;2022-09-01T08:17:43;15.50;99.90
8099;DHT22;4092;47.876;9.372;2022-09-01T08:20:11;15.50;99.90
8099;DHT22;4092;47.876;9.372;2022-09-01T08:22:38;15.60;99.90
8099;DHT22;4092;47.876;9.372;2022-09-01T08:25:06;15.60;99.90
8099;DHT22;4092;47.876;9.372;2022-09-01T08:27:35;15.70;99.90
8099;DHT22;4092;47.876;9.372;2022-09-01T08:30:06;15.70;99.90
8099;DHT22;4092;47.876;9.372;2022-09-01T08:32:34;15.70;99.90
8099;DHT22;4092;47.876;9.372;2022-09-01T08:35:03;15.70;99.90
8099;DHT22;4092;47.876;9.372;2022-09-01T08:37:30;15.70;99.90
8099;DHT22;4092;47.876;9.372;2022-09-01T08:39:58;15.60;99.90
8099;DHT22;4092;47.876;9.372;2022-09-01T08:42:39;15.70;99.90
8099;DHT22;4092;47.876;9.372;2022-09-01T08:45:14;15.70;99.90
8099;DHT22;4092;47.876;9.372;2022-09-01T08:47:46;15.70;99.90
8099;DHT22;4092;47.876;9.372;2022-09-01T08:50:14;15.90;99.90
8099;DHT22;4092;47.876;9.372;2022-09-01T08:52:45;16.30;99.90
8099;DHT22;4092;47.876;9.372;2022-09-01T08:55:17;16.50;99.90
8099;DHT22;4092;47.876;9.372;2022-09-01T08:57:46;16.60;99.90
8099;DHT22;4092;47.876;9.372;2022-09-01T09:00:18;16.80;99.90
8099;DHT22;4092;47.876;9.372;2022-09-01T09:02:59;16.90;99.90
8099;DHT22;4092;47.876;9.372;2022-09-01T09:05:37;16.90;99.90
8099;DHT22;4092;47.876;9.372;2022-09-01T09:08:25;16.90;99.90
8099;DHT22;4092;47.876;9.372;2022-09-01T09:10:58;16.80;99.90
8099;DHT22;4092;47.876;9.372;2022-09-01T09:13:34;16.80;99.90
8099;DHT22;4092;47.876;9.372;2022-09-01T09:16:08;17.10;99.90
8099;DHT22;4092;47.876;9.372;2022-09-01T09:18:39;17.40;99.90
8099;DHT22;4092;47.876;9.372;2022-09-01T09:21:14;17.40;99.90
8099;DHT22;4092;47.876;9.372;2022-09-01T09:23:45;17.40;99.90
8099;DHT22;4092;47.876;9.372;2022-09-01T09:26:14;17.50;99.90
8099;DHT22;4092;47.876;9.372;2022-09-01T09:28:45;17.40;99.90
8099;DHT22;4092;47.876;9.372;2022-09-01T09:31:33;17.30;99.90
8099;DHT22;4092;47.876;9.372;2022-09-01T09:34:01;17.20;99.90
8099;DHT22;4092;47.876;9.372;2022-09-01T09:36:32;17.20;99.90
8099;DHT22;4092;47.876;9.372;2022-09-01T09:39:04;17.00;99.90
8099;DHT22;4092;47.876;9.372;2022-09-01T09:41:32;17.30;99.90
8099;DHT22;4092;47.876;9.372;2022-09-01T09:44:02;17.60;99.90
8099;DHT22;4092;47.876;9.372;2022-09-01T09:46:34;17.70;99.90
8099;DHT22;4092;47.876;9.372;2022-09-01T09:49:17;17.90;99.90
8099;DHT22;4092;47.876;9.372;2022-09-01T09:51:48;18.00;99.90
8099;DHT22;4092;47.876;9.372;2022-09-01T09:54:20;17.90;99.90
8099;DHT22;4092;47.876;9.372;2022-09-01T09:56:49;18.20;99.90
8099;DHT22;4092;47.876;9.372;2022-09-01T09:59:29;18.40;99.90
8099;DHT22;4092;47.876;9.372;2022-09-01T10:01:57;18.40;99.90
8099;DHT22;4092;47.876;9.372;2022-09-01T10:04:34;18.20;99.90
8099;DHT22;4092;47.876;9.372;2022-09-01T10:07:27;18.10;99.90
8099;DHT22;4092;47.876;9.372;2022-09-01T10:09:57;17.90;99.90
8099;DHT22;4092;47.876;9.372;2022-09-01T10:12:25;17.90;99.90
8099;DHT22;4092;47.876;9.372;2022-09-01T10:14:56;17.90;99.90
8099;DHT22;4092;47.876;9.372;2022-09-01T10:17:28;17.90;99.90
8099;DHT22;4092;47.876;9.372;2022-09-01T10:20:00;18.10;99.90
8099;DHT22;4092;47.876;9.372;2022-09-01T10:22:33;18.40;99.90
8099;DHT22;4092;47.876;9.372;2022-09-01T10:25:01;18.70;99.90
8099;DHT22;4092;47.876;9.372;2022-09-01T10:27:29;18.80;99.90
8099;DHT22;4092;47.876;9.372;2022-09-01T10:30:04;18.90;99.90
8099;DHT22;4092;47.876;9.372;2022-09-01T10:32:38;19.10;99.90
8099;DHT22;4092;47.876;9.372;2022-09-01T10:35:07;19.10;99.90
8099;DHT22;4092;47.876;9.372;2022-09-01T10:37:38;19.00;99.90
8099;DHT22;4092;47.876;9.372;2022-09-01T10:40:17;18.90;99.90
8099;DHT22;4092;47.876;9.372;2022-09-01T10:42:46;18.90;99.90
8099;DHT22;4092;47.876;9.372;2022-09-01T10:45:29;19.10;99.90
8099;DHT22;4092;47.876;9.372;2022-09-01T10:48:22;19.20;99.90
8099;DHT22;4092;47.876;9.372;2022-09-01T10:50:51;19.10;99.90
8099;DHT22;4092;47.876;9.372;2022-09-01T10:53:39;19.20;99.90
8099;DHT22;4092;47.876;9.372;2022-09-01T10:56:09;19.40;99.90
8099;DHT22;4092;47.876;9.372;2022-09-01T10:58:47;19.60;99.90
8099;DHT22;4092;47.876;9.372;2022-09-01T11:01:15;19.80;99.90
8099;DHT22;4092;47.876;9.372;2022-09-01T11:03:51;20.00;99.90
8099;DHT22;4092;47.876;9.372;2022-09-01T11:09:21;20.30;99.90
8099;DHT22;4092;47.876;9.372;2022-09-01T11:14:50;20.10;99.90
8099;DHT22;4092;47.876;9.372;2022-09-01T11:17:20;20.30;99.90
8099;DHT22;4092;47.876;9.372;2022-09-01T11:20:05;20.40;99.90
8099;DHT22;4092;47.876;9.372;2022-09-01T11:22:37;20.20;99.90
8099;DHT22;4092;47.876;9.372;2022-09-01T11:25:42;20.10;99.90
8099;DHT22;4092;47.876;9.372;2022-09-01T11:31:29;19.70;99.90
8099;DHT22;4092;47.876;9.372;2022-09-01T11:34:13;19.60;99.90
8099;DHT22;4092;47.876;9.372;2022-09-01T11:36:56;19.60;99.90
8099;DHT22;4092;47.876;9.372;2022-09-01T11:39:38;19.40;99.90
8099;DHT22;4092;47.876;9.372;2022-09-01T11:42:11;19.60;99.90
8099;DHT22;4092;47.876;9.372;2022-09-01T11:44:44;20.00;99.90
8099;DHT22;4092;47.876;9.372;2022-09-01T11:47:15;20.20;99.90
8099;DHT22;4092;47.876;9.372;2022-09-01T11:49:50;19.90;99.90
8099;DHT22;4092;47.876;9.372;2022-09-01T11:52:20;19.60;99.90
8099;DHT22;4092;47.876;9.372;2022-09-01T11:54:48;19.50;99.90
8099;DHT22;4092;47.876;9.372;2022-09-01T11:57:20;19.70;99.90
8099;DHT22;4092;47.876;9.372;2022-09-01T11:59:48;20.20;99.90
8099;DHT22;4092;47.876;9.372;2022-09-01T12:02:20;20.40;99.90
8099;DHT22;4092;47.876;9.372;2022-09-01T12:04:49;20.30;99.90
8099;DHT22;4092;47.876;9.372;2022-09-01T12:07:27;20.40;99.90
8099;DHT22;4092;47.876;9.372;2022-09-01T12:09:56;20.20;99.90
8099;DHT22;4092;47.876;9.372;2022-09-01T12:12:35;20.20;99.90
8099;DHT22;4092;47.876;9.372;2022-09-01T12:15:06;20.40;99.90
8099;DHT22;4092;47.876;9.372;2022-09-01T12:17:34;20.70;99.90
8099;DHT22;4092;47.876;9.372;2022-09-01T12:20:23;21.00;99.90
8099;DHT22;4092;47.876;9.372;2022-09-01T12:22:51;21.40;99.90
8099;DHT22;4092;47.876;9.372;2022-09-01T12:25:20;21.70;99.90
8099;DHT22;4092;47.876;9.372;2022-09-01T12:27:50;21.60;99.90
8099;DHT22;4092;47.876;9.372;2022-09-01T12:30:17;21.30;99.90
8099;DHT22;4092;47.876;9.372;2022-09-01T12:32:45;21.50;99.90
8099;DHT22;4092;47.876;9.372;2022-09-01T12:35:16;21.60;99.90
8099;DHT22;4092;47.876;9.372;2022-09-01T12:37:44;22.00;99.90
8099;DHT22;4092;47.876;9.372;2022-09-01T12:40:23;21.90;99.90
8099;DHT22;4092;47.876;9.372;2022-09-01T12:42:52;22.40;99.90
8099;DHT22;4092;47.876;9.372;2022-09-01T12:45:40;23.20;99.90
8099;DHT22;4092;47.876;9.372;2022-09-01T12:48:22;23.30;99.90
8099;DHT22;4092;47.876;9.372;2022-09-01T12:50:50;23.30;99.90
8099;DHT22;4092;47.876;9.372;2022-09-01T12:53:21;23.70;99.90
8099;DHT22;4092;47.876;9.372;2022-09-01T12:59:09;25.30;99.90
8099;DHT22;4092;47.876;9.372;2022-09-01T13:01:39;25.50;99.90
8099;DHT22;4092;47.876;9.372;2022-09-01T13:04:21;25.70;99.90
8099;DHT22;4092;47.876;9.372;2022-09-01T13:06:49;26.00;99.90
8099;DHT22;4092;47.876;9.372;2022-09-01T13:09:16;25.60;99.90
8099;DHT22;4092;47.876;9.372;2022-09-01T13:11:44;25.00;99.90
8099;DHT22;4092;47.876;9.372;2022-09-01T13:14:14;24.40;99.90
8099;DHT22;4092;47.876;9.372;2022-09-01T13:16:42;23.30;99.90
8099;DHT22;4092;47.876;9.372;2022-09-01T13:19:09;22.80;99.90
8099;DHT22;4092;47.876;9.372;2022-09-01T13:21:36;22.20;99.90
8099;DHT22;4092;47.876;9.372;2022-09-01T13:24:05;22.20;99.90
8099;DHT22;4092;47.876;9.372;2022-09-01T13:26:32;22.90;99.90
8099;DHT22;4092;47.876;9.372;2022-09-01T13:29:00;23.60;99.90
8099;DHT22;4092;47.876;9.372;2022-09-01T13:31:28;24.20;99.90
8099;DHT22;4092;47.876;9.372;2022-09-01T13:33:56;24.50;99.90
8099;DHT22;4092;47.876;9.372;2022-09-01T13:36:23;24.90;99.90
8099;DHT22;4092;47.876;9.372;2022-09-01T13:38:50;25.10;99.90
8099;DHT22;4092;47.876;9.372;2022-09-01T13:41:17;25.20;99.90
8099;DHT22;4092;47.876;9.372;2022-09-01T13:43:44;24.30;99.90
8099;DHT22;4092;47.876;9.372;2022-09-01T13:46:12;24.00;99.90
8099;DHT22;4092;47.876;9.372;2022-09-01T13:48:41;23.50;99.90
8099;DHT22;4092;47.876;9.372;2022-09-01T13:51:08;23.90;99.90
8099;DHT22;4092;47.876;9.372;2022-09-01T13:53:35;23.70;99.90
8099;DHT22;4092;47.876;9.372;2022-09-01T13:56:03;23.80;99.90
8099;DHT22;4092;47.876;9.372;2022-09-01T13:58:30;24.10;99.90
8099;DHT22;4092;47.876;9.372;2022-09-01T14:00:57;24.40;99.90
8099;DHT22;4092;47.876;9.372;2022-09-01T14:03:24;24.60;99.90
8099;DHT22;4092;47.876;9.372;2022-09-01T14:05:53;24.60;99.90
8099;DHT22;4092;47.876;9.372;2022-09-01T14:08:21;24.90;99.90
8099;DHT22;4092;47.876;9.372;2022-09-01T14:10:50;25.00;99.90
8099;DHT22;4092;47.876;9.372;2022-09-01T14:13:19;25.20;99.90
8099;DHT22;4092;47.876;9.372;2022-09-01T14:15:46;25.10;99.90
8099;DHT22;4092;47.876;9.372;2022-09-01T14:18:14;24.90;99.90
8099;DHT22;4092;47.876;9.372;2022-09-01T14:20:43;25.20;99.90
8099;DHT22;4092;47.876;9.372;2022-09-01T14:23:13;25.40;99.90
8099;DHT22;4092;47.876;9.372;2022-09-01T14:25:42;25.60;99.90
8099;DHT22;4092;47.876;9.372;2022-09-01T14:28:09;25.30;99.90
8099;DHT22;4092;47.876;9.372;2022-09-01T14:30:39;25.50;99.90
8099;DHT22;4092;47.876;9.372;2022-09-01T14:33:07;25.50;99.90
8099;DHT22;4092;47.876;9.372;2022-09-01T14:35:37;25.70;99.90
8099;DHT22;4092;47.876;9.372;2022-09-01T14:38:05;25.60;99.90
8099;DHT22;4092;47.876;9.372;2022-09-01T14:40:35;25.50;99.90
8099;DHT22;4092;47.876;9.372;2022-09-01T14:43:03;25.20;99.90
8099;DHT22;4092;47.876;9.372;2022-09-01T14:45:31;25.10;99.90
8099;DHT22;4092;47.876;9.372;2022-09-01T14:47:59;24.70;99.90
8099;DHT22;4092;47.876;9.372;2022-09-01T14:50:28;24.20;99.90
8099;DHT22;4092;47.876;9.372;2022-09-01T14:52:57;23.80;99.90
8099;DHT22;4092;47.876;9.372;2022-09-01T14:55:27;23.90;99.90
8099;DHT22;4092;47.876;9.372;2022-09-01T14:57:56;24.20;99.90
8099;DHT22;4092;47.876;9.372;2022-09-01T15:00:25;24.60;99.90
8099;DHT22;4092;47.876;9.372;2022-09-01T15:02:52;24.60;99.90
8099;DHT22;4092;47.876;9.372;2022-09-01T15:05:21;24.70;99.90
8099;DHT22;4092;47.876;9.372;2022-09-01T15:07:48;24.60;99.90
8099;DHT22;4092;47.876;9.372;2022-09-01T15:10:18;24.20;99.90
8099;DHT22;4092;47.876;9.372;2022-09-01T15:12:45;24.10;99.90
8099;DHT22;4092;47.876;9.372;2022-09-01T15:15:16;24.00;99.90
8099;DHT22;4092;47.876;9.372;2022-09-01T15:17:43;23.80;99.90
8099;DHT22;4092;47.876;9.372;2022-09-01T15:20:13;23.70;99.90
8099;DHT22;4092;47.876;9.372;2022-09-01T15:22:57;23.60;99.90
8099;DHT22;4092;47.876;9.372;2022-09-01T15:25:24;23.60;99.90
8099;DHT22;4092;47.876;9.372;2022-09-01T15:27:51;23.70;99.90
8099;DHT22;4092;47.876;9.372;2022-09-01T15:30:20;23.90;99.90
8099;DHT22;4092;47.876;9.372;2022-09-01T15:32:49;24.10;99.90
8099;DHT22;4092;47.876;9.372;2022-09-01T15:35:17;24.10;99.90
8099;DHT22;4092;47.876;9.372;2022-09-01T15:37:45;23.50;99.90
8099;DHT22;4092;47.876;9.372;2022-09-01T15:40:12;23.00;99.90
8099;DHT22;4092;47.876;9.372;2022-09-01T15:42:39;22.60;99.90
8099;DHT22;4092;47.876;9.372;2022-09-01T15:45:08;22.40;99.90
8099;DHT22;4092;47.876;9.372;2022-09-01T15:47:38;22.60;99.90
8099;DHT22;4092;47.876;9.372;2022-09-01T15:50:10;22.90;99.90
8099;DHT22;4092;47.876;9.372;2022-09-01T15:52:46;23.20;99.90
8099;DHT22;4092;47.876;9.372;2022-09-01T15:55:15;23.40;99.90
8099;DHT22;4092;47.876;9.372;2022-09-01T15:57:42;23.10;99.90
8099;DHT22;4092;47.876;9.372;2022-09-01T16:00:10;23.20;99.90
8099;DHT22;4092;47.876;9.372;2022-09-01T16:02:39;23.10;99.90
8099;DHT22;4092;47.876;9.372;2022-09-01T16:05:07;23.00;99.90
8099;DHT22;4092;47.876;9.372;2022-09-01T16:07:34;22.90;99.90
8099;DHT22;4092;47.876;9.372;2022-09-01T16:10:02;22.70;99.90
8099;DHT22;4092;47.876;9.372;2022-09-01T16:12:31;22.80;99.90
8099;DHT22;4092;47.876;9.372;2022-09-01T16:15:00;22.80;99.90
8099;DHT22;4092;47.876;9.372;2022-09-01T16:17:44;22.40;99.90
8099;DHT22;4092;47.876;9.372;2022-09-01T16:20:18;22.10;99.90
8099;DHT22;4092;47.876;9.372;2022-09-01T16:22:51;21.80;99.90
8099;DHT22;4092;47.876;9.372;2022-09-01T16:25:24;21.70;99.90
8099;DHT22;4092;47.876;9.372;2022-09-01T16:27:52;21.60;99.90
8099;DHT22;4092;47.876;9.372;2022-09-01T16:30:23;21.40;99.90
8099;DHT22;4092;47.876;9.372;2022-09-01T16:32:56;21.20;99.90
8099;DHT22;4092;47.876;9.372;2022-09-01T16:35:27;21.20;99.90